Time;durP1;ratioP1;P1;durP2;ratioP2;P2;SDS_P1;SDS_P2;PMS_P1;PMS_P2;Temp;Humidity;BMP_temperature;BMP_pressure;BME280_temperature;BME280_humidity;BME280_pressure;Samples;Min_cycle;Max_cycle;Signal;HPM_P1;HPM_P2
2024/02/23 06:16:53;;;;;;;;;18.00;15.50;;;;;;;;5513696;23;11721;-67
2024/02/23 06:19:18;;;;;;;;;15.00;15.00;;;;;;;;4993794;28;11582;-67
2024/02/23 06:21:47;;;;;;;;;17.00;13.00;;;;;;;;4993084;28;8857;-67
2024/02/23 06:24:12;;;;;;;;;15.00;13.00;;;;;;;;4993336;28;8849;-67
2024/02/23 06:26:37;;;;;;;;;14.75;13.00;;;;;;;;4993131;28;11575;-67
2024/02/23 06:29:03;;;;;;;;;11.50;11.00;;;;;;;;4993262;28;9198;-67
2024/02/23 07:22:47;;;;;;;;;15.00;15.00;;;;;;;;5095210;27;13501;-72
2024/02/23 07:25:16;;;;;;;;;8.50;8.50;;;;;;;;5089845;28;11512;-71
2024/02/23 07:27:41;;;;;;;;;18.75;14.00;;;;;;;;5093211;28;8808;-69
2024/02/23 07:30:07;;;;;;;;;15.50;12.75;;;;;;;;5090101;28;12021;-71
2024/02/23 07:32:32;;;;;;;;;13.00;10.75;;;;;;;;5097612;28;8835;-69
2024/02/23 07:34:57;;;;;;;;;12.25;11.00;;;;;;;;5107268;28;9517;-70
2024/02/23 07:37:23;;;;;;;;;9.25;9.25;;;;;;;;5108167;28;8788;-72
2024/02/23 07:39:48;;;;;;;;;12.75;10.75;;;;;;;;5055529;28;11184;-72
2024/02/23 07:42:18;;;;;;;;;14.50;10.00;;;;;;;;5087451;28;8892;-73
2024/02/23 07:44:43;;;;;;;;;11.25;11.25;;;;;;;;5085537;28;8818;-73
2024/02/23 07:47:08;;;;;;;;;2.75;2.50;;;;;;;;5075657;28;11079;-80
2024/02/23 07:49:34;;;;;;;;;10.75;10.00;;;;;;;;5065263;28;8809;-72
2024/02/23 07:51:59;;;;;;;;;10.75;10.00;;;;;;;;5065545;28;8813;-72
2024/02/23 07:54:24;;;;;;;;;11.00;11.00;;;;;;;;5065262;28;8808;-73
2024/02/23 07:56:50;;;;;;;;;11.50;10.50;;;;;;;;5065768;28;8823;-73
2024/02/23 07:59:15;;;;;;;;;13.25;11.00;;;;;;;;5067090;28;8805;-73
2024/02/23 08:01:40;;;;;;;;;12.75;10.50;;;;;;;;5066734;28;8837;-77
2024/02/23 08:04:06;;;;;;;;;16.50;13.50;;;;;;;;5065603;28;8820;-78
2024/02/23 08:06:31;;;;;;;;;9.50;9.50;;;;;;;;5067209;28;8832;-73
2024/02/23 08:08:56;;;;;;;;;15.75;11.50;;;;;;;;5066987;28;9595;-73
2024/02/23 08:11:21;;;;;;;;;10.00;9.00;;;;;;;;5066962;28;8808;-72
2024/02/23 08:13:47;;;;;;;;;12.00;10.75;;;;;;;;5099498;28;8824;-73
2024/02/23 08:16:12;;;;;;;;;10.50;8.00;;;;;;;;5066630;28;8789;-76
2024/02/23 08:18:37;;;;;;;;;11.50;10.50;;;;;;;;5066489;28;8836;-70
2024/02/23 08:21:04;;;;;;;;;11.50;9.25;;;;;;;;5069576;28;8838;-69
2024/02/23 08:23:30;;;;;;;;;10.75;10.75;;;;;;;;5081682;28;8916;-70
2024/02/23 08:25:56;;;;;;;;;6.00;6.00;;;;;;;;5074104;28;11653;-70
2024/02/23 08:28:22;;;;;;;;;13.00;10.00;;;;;;;;5054208;28;9749;-69
2024/02/23 08:30:47;;;;;;;;;10.75;10.75;;;;;;;;5080930;28;12325;-69
2024/02/23 08:33:12;;;;;;;;;10.00;8.00;;;;;;;;5057541;28;11497;-71
2024/02/23 08:35:38;;;;;;;;;12.75;10.00;;;;;;;;5052029;28;8793;-72
2024/02/23 08:38:04;;;;;;;;;11.50;9.75;;;;;;;;5051768;28;8841;-73
2024/02/23 08:40:29;;;;;;;;;7.00;7.00;;;;;;;;5051427;28;8801;-72
2024/02/23 08:42:55;;;;;;;;;13.25;9.50;;;;;;;;5052553;28;11426;-72
2024/02/23 08:45:20;;;;;;;;;6.25;5.75;;;;;;;;5050767;28;8814;-71
2024/02/23 08:47:45;;;;;;;;;10.75;10.75;;;;;;;;5052576;28;8810;-73
2024/02/23 08:50:10;;;;;;;;;9.00;9.00;;;;;;;;5051282;28;8836;-72
2024/02/23 08:52:36;;;;;;;;;15.75;12.25;;;;;;;;5052114;28;8803;-72
2024/02/23 08:55:01;;;;;;;;;10.50;9.50;;;;;;;;5050690;28;8789;-72
2024/02/23 08:57:27;;;;;;;;;10.50;10.00;;;;;;;;5084843;28;8802;-72
2024/02/23 08:59:53;;;;;;;;;12.00;10.75;;;;;;;;5052495;28;8809;-72
2024/02/23 09:02:19;;;;;;;;;11.00;8.00;;;;;;;;5055282;28;11601;-72
2024/02/23 09:04:45;;;;;;;;;14.00;10.00;;;;;;;;5083553;28;8882;-75
2024/02/23 09:07:10;;;;;;;;;12.00;12.00;;;;;;;;5055283;28;8795;-73
2024/02/23 09:09:36;;;;;;;;;11.25;10.00;;;;;;;;5051219;28;11541;-74
2024/02/23 09:12:01;;;;;;;;;11.00;10.25;;;;;;;;5053028;28;8815;-73
2024/02/23 09:14:26;;;;;;;;;9.00;9.00;;;;;;;;5052159;28;8793;-73
2024/02/23 09:16:52;;;;;;;;;15.75;13.75;;;;;;;;5050847;28;8777;-72
2024/02/23 09:19:18;;;;;;;;;11.25;9.00;;;;;;;;5051928;28;8799;-72
2024/02/23 09:21:43;;;;;;;;;9.50;9.00;;;;;;;;5051320;28;11601;-73
2024/02/23 09:24:08;;;;;;;;;9.75;9.75;;;;;;;;5052042;28;8865;-72
2024/02/23 09:26:34;;;;;;;;;8.25;6.00;;;;;;;;5050071;28;9621;-73
2024/02/23 09:28:59;;;;;;;;;11.75;9.75;;;;;;;;5078315;28;8819;-72
2024/02/23 09:31:26;;;;;;;;;9.25;9.00;;;;;;;;5045818;28;8793;-72
2024/02/23 09:33:51;;;;;;;;;10.00;9.00;;;;;;;;5031743;28;8842;-71
2024/02/23 09:36:17;;;;;;;;;12.50;10.00;;;;;;;;5029910;28;11502;-72
2024/02/23 09:38:43;;;;;;;;;3.50;3.50;;;;;;;;5031296;28;8792;-69
2024/02/23 09:41:26;;;;;;;;;13.25;10.50;;;;;;;;5030829;28;8855;-70
2024/02/23 09:43:52;;;;;;;;;11.25;10.00;;;;;;;;5029920;28;11519;-72
2024/02/23 09:46:18;;;;;;;;;11.50;10.75;;;;;;;;5033987;28;11638;-72
2024/02/23 09:48:43;;;;;;;;;10.00;10.00;;;;;;;;5051852;28;11488;-71
2024/02/23 09:51:11;;;;;;;;;12.00;10.00;;;;;;;;5050574;28;8821;-71
2024/02/23 09:53:37;;;;;;;;;11.00;9.75;;;;;;;;5051970;28;8823;-71
2024/02/23 09:56:03;;;;;;;;;10.25;9.00;;;;;;;;5051665;28;11655;-72
2024/02/23 09:58:29;;;;;;;;;9.75;9.75;;;;;;;;5051700;28;11555;-72
2024/02/23 10:00:56;;;;;;;;;10.50;10.50;;;;;;;;5051544;28;11531;-71
2024/02/23 10:03:25;;;;;;;;;9.50;9.50;;;;;;;;5051409;28;12347;-71
2024/02/23 10:05:51;;;;;;;;;13.75;12.50;;;;;;;;5051580;28;12317;-71
2024/02/23 10:08:16;;;;;;;;;15.00;12.50;;;;;;;;5083644;28;11720;-71
2024/02/23 10:10:41;;;;;;;;;10.00;9.00;;;;;;;;5051297;28;9527;-71
2024/02/23 10:13:07;;;;;;;;;12.00;10.00;;;;;;;;5051709;28;8797;-71
2024/02/23 10:15:33;;;;;;;;;17.00;11.75;;;;;;;;5051333;28;8790;-71
2024/02/23 10:17:59;;;;;;;;;11.00;9.75;;;;;;;;5051462;28;11483;-71
2024/02/23 10:20:24;;;;;;;;;10.50;10.00;;;;;;;;5083258;28;8931;-73
2024/02/23 10:22:50;;;;;;;;;15.00;12.00;;;;;;;;5083341;28;8809;-70
2024/02/23 10:25:15;;;;;;;;;8.75;7.00;;;;;;;;5051031;28;8839;-71
2024/02/23 10:27:42;;;;;;;;;14.75;10.75;;;;;;;;5051058;28;8789;-72
2024/02/23 10:30:10;;;;;;;;;7.50;7.50;;;;;;;;5051287;28;8793;-72
2024/02/23 10:32:36;;;;;;;;;9.75;9.00;;;;;;;;5044637;28;11562;-72
2024/02/23 10:35:04;;;;;;;;;9.50;9.00;;;;;;;;5039075;28;11499;-71
2024/02/23 10:37:29;;;;;;;;;7.00;7.00;;;;;;;;5033537;28;12259;-71
2024/02/23 10:39:58;;;;;;;;;12.25;10.50;;;;;;;;5039576;28;11582;-71
2024/02/23 10:42:24;;;;;;;;;11.00;11.00;;;;;;;;5030920;28;8950;-72
2024/02/23 10:44:50;;;;;;;;;31.00;28.50;;;;;;;;5030822;28;12194;-72
2024/02/23 10:47:15;;;;;;;;;11.00;9.25;;;;;;;;5040965;28;11521;-71
2024/02/23 10:49:41;;;;;;;;;11.50;10.75;;;;;;;;5050649;28;12215;-72
2024/02/23 10:52:07;;;;;;;;;14.25;12.25;;;;;;;;5050598;28;8846;-71
2024/02/23 10:54:33;;;;;;;;;19.00;16.00;;;;;;;;5050414;28;8798;-71
2024/02/23 10:56:59;;;;;;;;;15.50;11.25;;;;;;;;5050227;28;11502;-71
2024/02/23 10:59:24;;;;;;;;;11.25;7.50;;;;;;;;5050525;28;11513;-72
2024/02/23 11:01:51;;;;;;;;;10.75;9.00;;;;;;;;5050436;28;8805;-71
2024/02/23 11:04:20;;;;;;;;;11.00;9.75;;;;;;;;5050627;28;9527;-71
2024/02/23 11:06:52;;;;;;;;;11.00;11.00;;;;;;;;5050434;28;11498;-71
2024/02/23 11:09:20;;;;;;;;;14.00;11.75;;;;;;;;5050422;28;11502;-71
2024/02/23 11:11:55;;;;;;;;;12.00;9.25;;;;;;;;5082586;28;11527;-71
2024/02/23 11:14:37;;;;;;;;;9.25;8.00;;;;;;;;5050390;28;11457;-71
2024/02/23 11:17:03;;;;;;;;;16.00;11.00;;;;;;;;5050793;28;11475;-71
2024/02/23 11:19:35;;;;;;;;;11.50;10.00;;;;;;;;5050188;28;11628;-72
2024/02/23 11:22:01;;;;;;;;;13.00;11.25;;;;;;;;5050288;28;8813;-72
2024/02/23 11:24:28;;;;;;;;;10.75;8.00;;;;;;;;5050315;28;11596;-71
2024/02/23 11:27:07;;;;;;;;;14.75;13.25;;;;;;;;5050414;28;8828;-71
2024/02/23 11:29:33;;;;;;;;;9.00;9.00;;;;;;;;5050318;28;11513;-72
2024/02/23 11:32:03;;;;;;;;;10.00;10.00;;;;;;;;5049815;28;11491;-73
2024/02/23 11:34:29;;;;;;;;;9.75;7.00;;;;;;;;5048989;28;8817;-73
2024/02/23 11:36:54;;;;;;;;;13.50;9.00;;;;;;;;5049877;28;11478;-73
2024/02/23 11:39:20;;;;;;;;;12.00;11.00;;;;;;;;5074024;28;8852;-73
2024/02/23 11:41:48;;;;;;;;;11.00;10.25;;;;;;;;5030320;28;8869;-71
2024/02/23 11:44:13;;;;;;;;;9.50;9.25;;;;;;;;5031615;28;8833;-71
2024/02/23 11:46:38;;;;;;;;;11.00;10.50;;;;;;;;5044236;28;11571;-71
2024/02/23 11:49:04;;;;;;;;;2.25;2.25;;;;;;;;5050387;28;8789;-71
2024/02/23 11:51:30;;;;;;;;;2.00;2.00;;;;;;;;5050054;28;8860;-72
2024/02/23 11:53:58;;;;;;;;;2.00;2.00;;;;;;;;5050217;28;8785;-71
2024/02/23 11:56:23;;;;;;;;;1.50;1.00;;;;;;;;5049980;28;11387;-71
2024/02/23 11:58:49;;;;;;;;;1.00;1.00;;;;;;;;5050148;28;11388;-71
2024/02/23 12:01:14;;;;;;;;;3.00;1.00;;;;;;;;5049939;28;8805;-71
2024/02/23 12:03:39;;;;;;;;;1.00;1.00;;;;;;;;5049900;28;8789;-71
2024/02/23 12:06:06;;;;;;;;;0.25;0.00;;;;;;;;5050044;28;8801;-71
2024/02/23 12:08:37;;;;;;;;;1.00;1.00;;;;;;;;5052026;28;8851;-71
2024/02/23 12:11:03;;;;;;;;;2.00;1.00;;;;;;;;5053512;28;11417;-71
2024/02/23 12:13:29;;;;;;;;;0.25;0.25;;;;;;;;5053577;28;11485;-71
2024/02/23 12:15:55;;;;;;;;;0.75;0.75;;;;;;;;5053377;28;8801;-72
2024/02/23 12:18:26;;;;;;;;;0.00;0.00;;;;;;;;5053969;28;9002;-71
2024/02/23 12:20:51;;;;;;;;;1.00;1.00;;;;;;;;5052131;28;11479;-71
2024/02/23 12:23:16;;;;;;;;;1.00;0.75;;;;;;;;5053535;28;11494;-72
2024/02/23 12:25:53;;;;;;;;;0.00;0.00;;;;;;;;5053491;28;8930;-72
2024/02/23 12:28:18;;;;;;;;;3.00;2.00;;;;;;;;5053513;28;8829;-71
2024/02/23 12:30:43;;;;;;;;;1.50;1.50;;;;;;;;5053427;28;12123;-71
2024/02/23 12:33:09;;;;;;;;;1.75;1.00;;;;;;;;5053242;28;8785;-71
2024/02/23 12:35:35;;;;;;;;;0.00;0.00;;;;;;;;5052021;28;8816;-71
2024/02/23 12:38:01;;;;;;;;;1.25;0.00;;;;;;;;5053440;28;8789;-71
2024/02/23 12:40:26;;;;;;;;;1.00;1.00;;;;;;;;5053136;28;11484;-71
2024/02/23 12:42:52;;;;;;;;;1.00;1.00;;;;;;;;5053090;28;8839;-71
2024/02/23 12:45:17;;;;;;;;;8.75;6.50;;;;;;;;5046843;28;8890;-71
2024/02/23 12:47:43;;;;;;;;;1.50;0.00;;;;;;;;5046781;28;9583;-71
2024/02/23 12:50:08;;;;;;;;;1.00;1.00;;;;;;;;5033627;28;8926;-71
2024/02/23 12:52:34;;;;;;;;;2.00;0.75;;;;;;;;5031666;28;8836;-71
2024/02/23 12:54:59;;;;;;;;;2.00;0.75;;;;;;;;5032991;28;8814;-71
2024/02/23 12:57:24;;;;;;;;;1.00;1.00;;;;;;;;5031465;28;8823;-71
2024/02/23 12:59:50;;;;;;;;;3.25;2.00;;;;;;;;5032938;28;8848;-71
2024/02/23 13:02:15;;;;;;;;;1.50;1.00;;;;;;;;5064717;28;8815;-71
2024/02/23 13:04:43;;;;;;;;;1.00;1.00;;;;;;;;5032828;28;8810;-71
2024/02/23 13:07:08;;;;;;;;;0.75;0.25;;;;;;;;5032784;28;8889;-71
2024/02/23 13:09:33;;;;;;;;;2.00;1.50;;;;;;;;5032653;28;11392;-71
2024/02/23 13:11:58;;;;;;;;;1.25;0.00;;;;;;;;5032546;28;8836;-71
2024/02/23 13:14:24;;;;;;;;;0.00;0.00;;;;;;;;5032716;28;8804;-71
2024/02/23 13:16:49;;;;;;;;;1.25;1.25;;;;;;;;5039962;28;8809;-73
2024/02/23 13:19:15;;;;;;;;;1.75;1.75;;;;;;;;5052456;28;9514;-71
2024/02/23 13:21:40;;;;;;;;;1.00;1.00;;;;;;;;5052407;28;8828;-72
2024/02/23 13:24:06;;;;;;;;;1.25;1.00;;;;;;;;5052404;28;8781;-72
2024/02/23 13:26:31;;;;;;;;;2.00;2.00;;;;;;;;5052228;28;8890;-72
2024/02/23 13:28:56;;;;;;;;;2.00;2.00;;;;;;;;5052372;28;8908;-71
2024/02/23 13:31:22;;;;;;;;;4.00;2.00;;;;;;;;5052169;28;8844;-71
2024/02/23 13:33:47;;;;;;;;;1.00;1.00;;;;;;;;5051677;28;9562;-71
2024/02/23 13:36:12;;;;;;;;;6.50;2.75;;;;;;;;5052341;28;8812;-71
2024/02/23 13:38:39;;;;;;;;;1.00;1.00;;;;;;;;5050855;28;8837;-71
2024/02/23 13:41:05;;;;;;;;;3.00;2.00;;;;;;;;5052031;28;8903;-71
2024/02/23 13:43:31;;;;;;;;;3.00;3.00;;;;;;;;5050380;28;11432;-71
2024/02/23 13:45:56;;;;;;;;;2.00;2.00;;;;;;;;5083802;28;11580;-71
2024/02/23 13:48:22;;;;;;;;;1.00;1.00;;;;;;;;5039770;28;8901;-72
2024/02/23 13:50:48;;;;;;;;;1.00;1.00;;;;;;;;5043239;28;8890;-69
2024/02/23 13:53:13;;;;;;;;;1.00;1.00;;;;;;;;5031846;28;8792;-69
2024/02/23 13:55:39;;;;;;;;;1.00;1.00;;;;;;;;5031750;28;8827;-68
2024/02/23 13:58:04;;;;;;;;;2.00;2.00;;;;;;;;5030654;28;8800;-68
2024/02/23 14:00:29;;;;;;;;;1.00;1.00;;;;;;;;5031876;28;9502;-68
2024/02/23 14:02:54;;;;;;;;;1.00;1.00;;;;;;;;5063308;28;8882;-68
2024/02/23 14:05:21;;;;;;;;;2.75;1.00;;;;;;;;5031531;28;8820;-69
2024/02/23 14:07:47;;;;;;;;;0.50;0.50;;;;;;;;5031632;28;8788;-71
2024/02/23 14:10:13;;;;;;;;;1.00;1.00;;;;;;;;5031513;28;11411;-70
2024/02/23 14:12:39;;;;;;;;;1.00;1.00;;;;;;;;5031434;28;8827;-67
2024/02/23 14:15:05;;;;;;;;;2.00;1.75;;;;;;;;5031289;28;11508;-67
2024/02/23 14:17:30;;;;;;;;;1.00;1.00;;;;;;;;5043419;28;8916;-67
2024/02/23 14:19:55;;;;;;;;;0.75;0.75;;;;;;;;5051232;28;8781;-67
2024/02/23 14:22:21;;;;;;;;;3.00;1.00;;;;;;;;5049706;28;8851;-67
2024/02/23 14:24:46;;;;;;;;;3.00;1.00;;;;;;;;5051081;28;8900;-67
2024/02/23 14:27:11;;;;;;;;;1.00;1.00;;;;;;;;5050991;28;8785;-67
2024/02/23 14:29:36;;;;;;;;;3.00;2.00;;;;;;;;5051139;28;8809;-67
2024/02/23 14:32:02;;;;;;;;;1.00;1.00;;;;;;;;5050355;28;8906;-67
2024/02/23 14:34:29;;;;;;;;;2.25;2.25;;;;;;;;5050970;28;9172;-68
2024/02/23 14:36:54;;;;;;;;;6.00;2.00;;;;;;;;5050205;28;8801;-67
2024/02/23 14:39:21;;;;;;;;;2.00;2.00;;;;;;;;5048933;28;11600;-67
2024/02/23 14:41:46;;;;;;;;;1.00;1.00;;;;;;;;5050256;28;8912;-67
2024/02/23 14:44:11;;;;;;;;;2.00;2.00;;;;;;;;5050056;28;11626;-67
2024/02/23 14:46:37;;;;;;;;;3.00;3.00;;;;;;;;5049830;28;8789;-68
2024/02/23 14:49:02;;;;;;;;;2.25;2.00;;;;;;;;5049337;28;8908;-67
2024/02/23 14:51:27;;;;;;;;;3.00;3.00;;;;;;;;5048864;28;8848;-67
2024/02/23 14:53:53;;;;;;;;;3.00;3.00;;;;;;;;5048377;28;8819;-67
2024/02/23 14:56:18;;;;;;;;;2.00;2.00;;;;;;;;5049985;28;8836;-68
2024/02/23 14:58:44;;;;;;;;;2.25;2.25;;;;;;;;5050216;28;8794;-68
2024/02/23 15:01:09;;;;;;;;;4.00;4.00;;;;;;;;5050085;28;8913;-68
2024/02/23 15:03:35;;;;;;;;;4.00;4.00;;;;;;;;5049750;28;8782;-68
2024/02/23 15:06:01;;;;;;;;;3.25;2.75;;;;;;;;5048576;28;8885;-68
2024/02/23 15:08:27;;;;;;;;;2.00;2.00;;;;;;;;5049971;28;8789;-68
2024/02/23 15:10:52;;;;;;;;;2.00;1.75;;;;;;;;5049536;28;11492;-68
2024/02/23 15:13:18;;;;;;;;;1.75;1.75;;;;;;;;5049904;28;8805;-67
2024/02/23 15:15:44;;;;;;;;;2.00;2.00;;;;;;;;5049962;28;8823;-68
2024/02/23 15:18:09;;;;;;;;;2.00;2.00;;;;;;;;5049083;28;11447;-68
2024/02/23 15:20:35;;;;;;;;;4.50;3.00;;;;;;;;5049709;28;8813;-67
2024/02/23 15:23:01;;;;;;;;;1.00;1.00;;;;;;;;5048654;28;8793;-68
2024/02/23 15:25:27;;;;;;;;;1.00;1.00;;;;;;;;5049997;28;11566;-67
2024/02/23 15:27:53;;;;;;;;;2.00;1.00;;;;;;;;5049293;28;11583;-67
2024/02/23 15:30:18;;;;;;;;;1.00;1.00;;;;;;;;5050353;28;8797;-67
2024/02/23 15:32:44;;;;;;;;;2.00;2.00;;;;;;;;5049860;28;11445;-67
2024/02/23 15:35:10;;;;;;;;;3.00;2.75;;;;;;;;5050291;28;8819;-67
2024/02/23 15:37:35;;;;;;;;;2.00;2.00;;;;;;;;5050209;28;11523;-67
2024/02/23 15:40:03;;;;;;;;;2.50;2.00;;;;;;;;5050127;28;8899;-67
2024/02/23 15:42:29;;;;;;;;;1.00;1.00;;;;;;;;5050702;28;8870;-68
2024/02/23 15:44:54;;;;;;;;;2.00;2.00;;;;;;;;5053133;28;11477;-68
2024/02/23 15:47:20;;;;;;;;;1.75;1.75;;;;;;;;5053781;28;8785;-68
2024/02/23 15:49:45;;;;;;;;;2.00;2.00;;;;;;;;5054201;28;8905;-69
2024/02/23 15:52:11;;;;;;;;;2.00;1.25;;;;;;;;5054021;28;8821;-68
2024/02/23 15:54:36;;;;;;;;;3.00;1.50;;;;;;;;5047068;28;8798;-68
2024/02/23 15:57:01;;;;;;;;;1.75;1.75;;;;;;;;5041092;28;8797;-68
2024/02/23 15:59:27;;;;;;;;;2.75;2.75;;;;;;;;5047817;28;8789;-68
2024/02/23 16:01:52;;;;;;;;;1.25;1.25;;;;;;;;5033988;28;8807;-68
2024/02/23 16:04:17;;;;;;;;;2.00;2.00;;;;;;;;5033855;28;8824;-68
2024/02/23 19:03:03;;;;;;;;;15.25;14.25;;;;;;;;5145902;27;13303;-70
2024/02/23 19:05:31;;;;;;;;;21.75;20.00;;;;;;;;5129115;27;11490;-72
2024/02/23 19:07:56;;;;;;;;;10.00;5.75;;;;;;;;5127695;27;8819;-68
2024/02/23 19:10:21;;;;;;;;;98.50;89.25;;;;;;;;5127952;27;11425;-70
2024/02/23 19:12:47;;;;;;;;;43.67;38.33;;;;;;;;5086643;27;12268;-70
2024/02/23 19:15:12;;;;;;;;;9.00;7.00;;;;;;;;5036740;28;11109;-69
2024/02/23 19:17:39;;;;;;;;;31.00;29.25;;;;;;;;5064912;28;8793;-68
2024/02/23 19:20:08;;;;;;;;;23.50;21.00;;;;;;;;5047030;28;8922;-69
2024/02/23 19:22:37;;;;;;;;;12.00;8.75;;;;;;;;5047373;28;11567;-69
2024/02/23 19:25:03;;;;;;;;;11.50;9.75;;;;;;;;5045868;28;11483;-68
2024/02/23 19:27:28;;;;;;;;;11.50;9.00;;;;;;;;5047339;28;11478;-69
2024/02/23 19:29:53;;;;;;;;;14.00;13.00;;;;;;;;5045151;28;8858;-71
2024/02/23 19:32:19;;;;;;;;;16.25;14.00;;;;;;;;5047341;28;8942;-68
2024/02/23 19:34:44;;;;;;;;;29.75;28.50;;;;;;;;5047054;28;8796;-69
2024/02/23 19:37:10;;;;;;;;;30.25;26.25;;;;;;;;5045897;28;8831;-68
2024/02/23 19:39:35;;;;;;;;;29.00;21.25;;;;;;;;5043937;28;8878;-68
2024/02/23 19:42:03;;;;;;;;;29.25;28.00;;;;;;;;5046758;28;8824;-72
2024/02/23 19:44:29;;;;;;;;;13.50;11.00;;;;;;;;5045685;28;8819;-68
2024/02/23 19:46:55;;;;;;;;;14.75;13.50;;;;;;;;5054485;28;11701;-68
2024/02/23 19:49:23;;;;;;;;;23.75;20.75;;;;;;;;5062200;28;11645;-70
2024/02/23 19:51:48;;;;;;;;;8.25;5.50;;;;;;;;5047392;28;9596;-69
2024/02/23 19:54:13;;;;;;;;;11.50;11.25;;;;;;;;5046541;28;11441;-73
2024/02/23 19:56:41;;;;;;;;;10.75;9.75;;;;;;;;5046873;28;8803;-74
2024/02/23 19:59:06;;;;;;;;;8.75;7.00;;;;;;;;5044930;28;8850;-71
2024/02/23 20:01:32;;;;;;;;;8.00;7.25;;;;;;;;5046264;28;11525;-76
2024/02/23 20:03:57;;;;;;;;;7.25;4.50;;;;;;;;5046731;28;8919;-76
2024/02/23 20:06:23;;;;;;;;;9.00;7.25;;;;;;;;5046901;28;8954;-76
2024/02/23 20:08:48;;;;;;;;;9.00;7.00;;;;;;;;5044486;28;8807;-76
2024/02/23 20:11:13;;;;;;;;;14.00;9.75;;;;;;;;5045463;28;8823;-71
2024/02/23 20:13:41;;;;;;;;;9.50;8.75;;;;;;;;5040284;28;8930;-74
2024/02/23 20:16:07;;;;;;;;;6.50;6.50;;;;;;;;5052717;28;8801;-73
2024/02/23 20:18:32;;;;;;;;;9.00;8.50;;;;;;;;5052457;28;11465;-72
2024/02/23 20:20:57;;;;;;;;;8.50;7.00;;;;;;;;5053145;28;8825;-72
2024/02/23 20:23:22;;;;;;;;;5.00;3.25;;;;;;;;5052905;28;8824;-72
2024/02/23 20:25:48;;;;;;;;;7.25;7.00;;;;;;;;5051648;28;8923;-72
2024/02/23 20:28:14;;;;;;;;;7.00;7.00;;;;;;;;5052913;28;8811;-71
2024/02/23 20:30:42;;;;;;;;;9.75;6.50;;;;;;;;5052972;28;8817;-71
2024/02/23 20:33:08;;;;;;;;;10.25;7.50;;;;;;;;5052673;28;9565;-71
2024/02/23 20:35:33;;;;;;;;;7.50;7.50;;;;;;;;5052678;28;11468;-70
2024/02/23 20:37:59;;;;;;;;;7.00;6.50;;;;;;;;5052644;28;11503;-70
2024/02/23 20:40:24;;;;;;;;;8.75;8.00;;;;;;;;5052924;28;8786;-70
2024/02/23 20:42:50;;;;;;;;;9.00;7.00;;;;;;;;5052605;28;8853;-71
2024/02/23 20:45:16;;;;;;;;;9.75;5.00;;;;;;;;5051495;28;8813;-70
2024/02/23 20:47:44;;;;;;;;;8.25;7.75;;;;;;;;5052512;28;11571;-71
2024/02/23 20:50:12;;;;;;;;;6.00;4.75;;;;;;;;5052490;28;8927;-70
2024/02/23 20:52:43;;;;;;;;;4.00;4.00;;;;;;;;5051198;28;11505;-71
2024/02/23 20:55:08;;;;;;;;;9.25;7.25;;;;;;;;5052442;28;11486;-69
2024/02/23 20:57:37;;;;;;;;;54.50;44.50;;;;;;;;5052226;28;12368;-67
2024/02/23 21:00:03;;;;;;;;;5.50;5.50;;;;;;;;5052263;28;8805;-66
2024/02/23 21:02:28;;;;;;;;;3.00;3.00;;;;;;;;5017679;28;11446;-66
2024/02/23 21:04:54;;;;;;;;;4.25;2.00;;;;;;;;5048331;28;8832;-67
2024/02/23 21:07:19;;;;;;;;;5.25;4.00;;;;;;;;5037106;28;8970;-68
2024/02/23 21:09:45;;;;;;;;;6.50;4.00;;;;;;;;5032461;28;8779;-67
2024/02/23 21:12:10;;;;;;;;;2.50;1.75;;;;;;;;5032273;28;8839;-66
2024/02/23 21:14:35;;;;;;;;;2.50;2.00;;;;;;;;5030727;28;9545;-67
2024/02/23 21:17:01;;;;;;;;;4.00;2.00;;;;;;;;5040533;28;8852;-68
2024/02/23 21:19:26;;;;;;;;;3.50;2.00;;;;;;;;5050878;28;8806;-67
2024/02/23 21:21:52;;;;;;;;;4.50;4.50;;;;;;;;5050957;28;8817;-67
2024/02/23 21:24:17;;;;;;;;;1.50;1.25;;;;;;;;5051116;28;8817;-69
2024/02/23 21:26:43;;;;;;;;;4.25;4.00;;;;;;;;5052112;28;8902;-67
2024/02/23 21:29:08;;;;;;;;;4.00;4.00;;;;;;;;5051846;28;8789;-67
2024/02/23 21:31:34;;;;;;;;;1.00;1.00;;;;;;;;5050414;28;11488;-67
2024/02/23 21:34:01;;;;;;;;;3.00;2.00;;;;;;;;5050239;28;8878;-68
2024/02/23 21:36:26;;;;;;;;;1.00;1.00;;;;;;;;5050541;28;8954;-67
2024/02/23 21:38:51;;;;;;;;;4.00;2.00;;;;;;;;5051659;28;11443;-67
2024/02/23 21:41:19;;;;;;;;;1.25;1.00;;;;;;;;5051714;28;8851;-67
2024/02/23 21:43:45;;;;;;;;;1.50;1.00;;;;;;;;5051626;28;8924;-68
2024/02/23 21:46:13;;;;;;;;;5.25;1.50;;;;;;;;5051371;28;11635;-67
2024/02/23 21:48:38;;;;;;;;;4.25;3.00;;;;;;;;5051329;28;9494;-67
2024/02/23 21:51:04;;;;;;;;;3.25;1.75;;;;;;;;5051448;28;11581;-67
2024/02/23 21:53:29;;;;;;;;;2.00;2.00;;;;;;;;5051487;28;8805;-67
2024/02/23 21:55:55;;;;;;;;;1.00;1.00;;;;;;;;5049948;28;8833;-67
2024/02/23 21:58:20;;;;;;;;;4.00;2.75;;;;;;;;5051172;28;8899;-65
2024/02/23 22:00:45;;;;;;;;;4.50;2.75;;;;;;;;5051117;28;8786;-65
2024/02/23 22:03:11;;;;;;;;;6.00;4.50;;;;;;;;5051191;28;8793;-66
2024/02/23 22:05:36;;;;;;;;;5.75;4.75;;;;;;;;5051035;28;8801;-65
2024/02/23 22:08:01;;;;;;;;;21.25;14.25;;;;;;;;5050967;28;8793;-65
2024/02/23 22:10:27;;;;;;;;;23.75;22.00;;;;;;;;5050366;28;8814;-64
2024/02/23 22:12:52;;;;;;;;;25.00;22.00;;;;;;;;5049862;28;8894;-65
2024/02/23 22:15:19;;;;;;;;;22.00;19.50;;;;;;;;5049946;28;8824;-65
2024/02/23 22:17:45;;;;;;;;;9.00;5.00;;;;;;;;5050643;28;8809;-65
2024/02/23 22:20:10;;;;;;;;;2.00;2.00;;;;;;;;5048614;28;11509;-65
2024/02/23 22:22:36;;;;;;;;;2.25;1.50;;;;;;;;5050505;28;8852;-65
2024/02/23 22:25:01;;;;;;;;;5.75;1.75;;;;;;;;5050608;28;8828;-65
2024/02/23 22:27:27;;;;;;;;;6.50;2.50;;;;;;;;5050356;28;8805;-65
2024/02/23 22:29:52;;;;;;;;;4.00;3.50;;;;;;;;5050368;28;8805;-65
2024/02/23 22:32:19;;;;;;;;;3.00;1.25;;;;;;;;5050402;28;8868;-65
2024/02/23 22:34:45;;;;;;;;;4.50;2.75;;;;;;;;5050294;28;8800;-65
2024/02/23 22:37:10;;;;;;;;;3.50;2.75;;;;;;;;5049466;28;11492;-65
2024/02/23 22:39:35;;;;;;;;;2.00;2.00;;;;;;;;5050354;28;8827;-65
2024/02/23 22:42:00;;;;;;;;;5.25;1.75;;;;;;;;5050087;28;8808;-65
2024/02/23 22:44:26;;;;;;;;;2.00;2.00;;;;;;;;5050204;28;8777;-65
2024/02/23 22:46:54;;;;;;;;;3.25;1.00;;;;;;;;5050148;28;9554;-65
2024/02/23 22:49:19;;;;;;;;;3.50;2.00;;;;;;;;5050051;28;8804;-65
2024/02/23 22:51:45;;;;;;;;;2.00;2.00;;;;;;;;5050224;28;11497;-66
2024/02/23 22:54:11;;;;;;;;;2.00;1.25;;;;;;;;5050100;28;8883;-65
2024/02/23 22:56:36;;;;;;;;;5.50;2.00;;;;;;;;5049798;28;11550;-65
2024/02/23 22:59:08;;;;;;;;;3.50;3.25;;;;;;;;5050270;28;8824;-65
2024/02/23 23:01:34;;;;;;;;;7.00;4.00;;;;;;;;5049881;28;8809;-65
2024/02/23 23:03:59;;;;;;;;;5.00;4.75;;;;;;;;5048637;28;11555;-65
2024/02/23 23:06:24;;;;;;;;;3.50;3.00;;;;;;;;5050003;28;8800;-64
2024/02/23 23:08:50;;;;;;;;;3.00;2.00;;;;;;;;5050020;28;9522;-65
2024/02/23 23:11:15;;;;;;;;;2.50;2.25;;;;;;;;5050162;28;8833;-64
2024/02/23 23:13:41;;;;;;;;;4.75;0.75;;;;;;;;5050267;28;8878;-63
